sensor_id;sensor_type;location;lat;lon;timestamp;pressure;altitude;pressure_sealevel;temperature;humidity
71344;BME280;59146;43.850;25.948;2024-02-14T00:01:14;100749.72;;;8.65;91.47
71344;BME280;59146;43.850;25.948;2024-02-14T00:03:39;100797.38;;;8.84;92.53
71344;BME280;59146;43.850;25.948;2024-02-14T00:06:06;100828.13;;;9.12;91.22
71344;BME280;59146;43.850;25.948;2024-02-14T00:08:31;100737.72;;;8.79;90.45
71344;BME280;59146;43.850;25.948;2024-02-14T00:10:57;100750.09;;;8.74;90.18
71344;BME280;59146;43.850;25.948;2024-02-14T00:13:22;100822.31;;;9.07;90.29
71344;BME280;59146;43.850;25.948;2024-02-14T00:15:48;100785.13;;;8.86;90.26
71344;BME280;59146;43.850;25.948;2024-02-14T00:18:14;100756.72;;;8.82;88.38
71344;BME280;59146;43.850;25.948;2024-02-14T00:20:40;100756.94;;;8.94;88.34
71344;BME280;59146;43.850;25.948;2024-02-14T00:23:05;100768.88;;;8.81;88.01
71344;BME280;59146;43.850;25.948;2024-02-14T00:25:31;100761.72;;;8.50;88.96
71344;BME280;59146;43.850;25.948;2024-02-14T00:27:57;100760.75;;;8.70;89.10
71344;BME280;59146;43.850;25.948;2024-02-14T00:30:26;100819.72;;;9.07;88.82
71344;BME280;59146;43.850;25.948;2024-02-14T00:32:51;100819.63;;;9.08;87.71
71344;BME280;59146;43.850;25.948;2024-02-14T00:35:17;100805.06;;;8.87;88.59
71344;BME280;59146;43.850;25.948;2024-02-14T00:37:42;100820.81;;;8.84;88.91
71344;BME280;59146;43.850;25.948;2024-02-14T00:40:08;100743.00;;;8.42;88.93
71344;BME280;59146;43.850;25.948;2024-02-14T00:42:34;100847.38;;;9.26;87.97
71344;BME280;59146;43.850;25.948;2024-02-14T00:44:59;100769.53;;;8.67;87.26
71344;BME280;59146;43.850;25.948;2024-02-14T00:47:25;100765.16;;;8.51;87.62
71344;BME280;59146;43.850;25.948;2024-02-14T00:49:50;100806.72;;;8.71;88.42
71344;BME280;59146;43.850;25.948;2024-02-14T00:52:17;100854.44;;;9.24;87.05
71344;BME280;59146;43.850;25.948;2024-02-14T00:54:42;100768.34;;;8.74;85.62
71344;BME280;59146;43.850;25.948;2024-02-14T00:57:07;100831.44;;;8.98;85.88
71344;BME280;59146;43.850;25.948;2024-02-14T00:59:33;100872.09;;;9.01;87.15
71344;BME280;59146;43.850;25.948;2024-02-14T01:01:59;100804.34;;;8.66;87.02
71344;BME280;59146;43.850;25.948;2024-02-14T01:04:24;100781.50;;;8.54;86.21
71344;BME280;59146;43.850;25.948;2024-02-14T01:06:50;100825.72;;;8.73;87.37
71344;BME280;59146;43.850;25.948;2024-02-14T01:09:17;100814.81;;;8.46;88.95
71344;BME280;59146;43.850;25.948;2024-02-14T01:11:42;100839.53;;;8.56;90.43
71344;BME280;59146;43.850;25.948;2024-02-14T01:14:08;100768.75;;;8.11;89.84
71344;BME280;59146;43.850;25.948;2024-02-14T01:16:33;100767.47;;;8.20;90.11
71344;BME280;59146;43.850;25.948;2024-02-14T01:18:59;100837.75;;;8.57;88.68
71344;BME280;59146;43.850;25.948;2024-02-14T01:21:24;100834.69;;;8.30;90.79
71344;BME280;59146;43.850;25.948;2024-02-14T01:23:49;100774.88;;;8.10;90.31
71344;BME280;59146;43.850;25.948;2024-02-14T01:26:16;100839.81;;;8.50;90.23
71344;BME280;59146;43.850;25.948;2024-02-14T01:28:41;100859.78;;;8.68;90.18
71344;BME280;59146;43.850;25.948;2024-02-14T01:31:09;100809.13;;;8.20;90.91
71344;BME280;59146;43.850;25.948;2024-02-14T01:33:36;100807.66;;;8.14;91.16
71344;BME280;59146;43.850;25.948;2024-02-14T01:36:01;100863.47;;;8.46;91.38
71344;BME280;59146;43.850;25.948;2024-02-14T01:38:27;100766.13;;;7.92;91.23
71344;BME280;59146;43.850;25.948;2024-02-14T01:40:52;100775.09;;;8.06;90.42
71344;BME280;59146;43.850;25.948;2024-02-14T01:43:19;100751.19;;;7.59;92.40
71344;BME280;59146;43.850;25.948;2024-02-14T01:45:45;100838.34;;;8.26;92.09
71344;BME280;59146;43.850;25.948;2024-02-14T01:48:11;100867.81;;;8.45;91.13
71344;BME280;59146;43.850;25.948;2024-02-14T01:50:36;100864.25;;;8.29;91.19
71344;BME280;59146;43.850;25.948;2024-02-14T01:53:02;100782.84;;;7.68;91.97
71344;BME280;59146;43.850;25.948;2024-02-14T01:55:28;100790.16;;;7.60;92.36
71344;BME280;59146;43.850;25.948;2024-02-14T01:57:54;100868.59;;;8.29;91.81
71344;BME280;59146;43.850;25.948;2024-02-14T02:00:20;100817.25;;;7.93;91.54
71344;BME280;59146;43.850;25.948;2024-02-14T02:02:45;100789.25;;;7.80;90.01
71344;BME280;59146;43.850;25.948;2024-02-14T02:05:12;100803.88;;;7.82;90.73
71344;BME280;59146;43.850;25.948;2024-02-14T02:07:39;100855.38;;;8.33;90.67
71344;BME280;59146;43.850;25.948;2024-02-14T02:10:09;100872.75;;;8.51;88.96
71344;BME280;59146;43.850;25.948;2024-02-14T02:12:34;100809.88;;;8.03;89.28
71344;BME280;59146;43.850;25.948;2024-02-14T02:15:06;100814.66;;;7.93;89.29
71344;BME280;59146;43.850;25.948;2024-02-14T02:17:33;100861.34;;;8.15;89.93
71344;BME280;59146;43.850;25.948;2024-02-14T02:20:00;100792.16;;;7.92;88.30
71344;BME280;59146;43.850;25.948;2024-02-14T02:22:26;100886.03;;;8.45;87.92
71344;BME280;59146;43.850;25.948;2024-02-14T02:24:53;100872.22;;;8.25;87.79
71344;BME280;59146;43.850;25.948;2024-02-14T02:27:19;100852.78;;;8.13;87.96
71344;BME280;59146;43.850;25.948;2024-02-14T02:29:45;100881.69;;;8.46;87.44
71344;BME280;59146;43.850;25.948;2024-02-14T02:32:11;100896.03;;;8.73;86.60
71344;BME280;59146;43.850;25.948;2024-02-14T02:34:36;100874.28;;;8.55;85.23
71344;BME280;59146;43.850;25.948;2024-02-14T02:37:05;100864.41;;;8.25;85.73
71344;BME280;59146;43.850;25.948;2024-02-14T02:39:33;100876.00;;;8.38;85.52
71344;BME280;59146;43.850;25.948;2024-02-14T02:42:00;100852.00;;;8.31;85.78
71344;BME280;59146;43.850;25.948;2024-02-14T02:44:26;100858.53;;;8.40;85.22
71344;BME280;59146;43.850;25.948;2024-02-14T02:46:52;100886.53;;;8.53;85.14
71344;BME280;59146;43.850;25.948;2024-02-14T02:49:17;100830.00;;;7.99;85.20
71344;BME280;59146;43.850;25.948;2024-02-14T02:51:43;100857.50;;;8.24;84.72
71344;BME280;59146;43.850;25.948;2024-02-14T02:54:09;100927.69;;;8.82;84.03
71344;BME280;59146;43.850;25.948;2024-02-14T02:56:36;100845.16;;;8.47;83.26
71344;BME280;59146;43.850;25.948;2024-02-14T02:59:01;100928.34;;;8.69;83.37
71344;BME280;59146;43.850;25.948;2024-02-14T03:01:28;100842.66;;;8.07;84.00
71344;BME280;59146;43.850;25.948;2024-02-14T03:03:59;100922.13;;;8.71;83.13
71344;BME280;59146;43.850;25.948;2024-02-14T03:06:25;100823.59;;;8.07;82.84
71344;BME280;59146;43.850;25.948;2024-02-14T03:08:51;100915.19;;;8.53;83.05
71344;BME280;59146;43.850;25.948;2024-02-14T03:11:19;100920.25;;;8.56;82.75
71344;BME280;59146;43.850;25.948;2024-02-14T03:13:45;100910.31;;;8.46;83.02
71344;BME280;59146;43.850;25.948;2024-02-14T03:16:14;100864.41;;;8.25;83.42
71344;BME280;59146;43.850;25.948;2024-02-14T03:18:40;100916.09;;;8.71;82.00
71344;BME280;59146;43.850;25.948;2024-02-14T03:21:05;100822.69;;;8.08;82.21
71344;BME280;59146;43.850;25.948;2024-02-14T03:23:31;100953.25;;;8.74;81.89
71344;BME280;59146;43.850;25.948;2024-02-14T03:25:57;100924.31;;;8.62;82.77
71344;BME280;59146;43.850;25.948;2024-02-14T03:28:22;100930.59;;;8.76;80.94
71344;BME280;59146;43.850;25.948;2024-02-14T03:30:48;100893.16;;;8.42;80.58
71344;BME280;59146;43.850;25.948;2024-02-14T03:33:14;100905.59;;;8.35;81.10
71344;BME280;59146;43.850;25.948;2024-02-14T03:35:39;100965.78;;;8.66;81.84
71344;BME280;59146;43.850;25.948;2024-02-14T03:38:06;100958.31;;;8.59;82.54
71344;BME280;59146;43.850;25.948;2024-02-14T03:40:34;100958.66;;;8.89;81.01
71344;BME280;59146;43.850;25.948;2024-02-14T03:43:01;100927.28;;;8.54;80.83
71344;BME280;59146;43.850;25.948;2024-02-14T03:45:26;100949.88;;;8.54;81.03
71344;BME280;59146;43.850;25.948;2024-02-14T03:47:55;100926.34;;;8.37;81.48
71344;BME280;59146;43.850;25.948;2024-02-14T03:50:20;100962.25;;;8.67;80.30
71344;BME280;59146;43.850;25.948;2024-02-14T03:52:46;100921.94;;;8.57;79.45
71344;BME280;59146;43.850;25.948;2024-02-14T03:55:13;100985.50;;;8.72;80.54
71344;BME280;59146;43.850;25.948;2024-02-14T03:57:39;100997.41;;;8.77;80.72
71344;BME280;59146;43.850;25.948;2024-02-14T04:00:05;100956.56;;;8.59;81.09
71344;BME280;59146;43.850;25.948;2024-02-14T04:02:33;100933.31;;;8.55;81.19
71344;BME280;59146;43.850;25.948;2024-02-14T04:04:59;101004.66;;;8.90;79.22
71344;BME280;59146;43.850;25.948;2024-02-14T04:07:24;101004.34;;;8.58;80.24
71344;BME280;59146;43.850;25.948;2024-02-14T04:09:50;100980.75;;;8.61;80.54
71344;BME280;59146;43.850;25.948;2024-02-14T04:12:15;100986.25;;;8.93;79.41
71344;BME280;59146;43.850;25.948;2024-02-14T04:14:41;101010.72;;;9.09;79.39
71344;BME280;59146;43.850;25.948;2024-02-14T04:17:06;100971.06;;;8.65;79.13
71344;BME280;59146;43.850;25.948;2024-02-14T04:19:33;100930.28;;;8.27;80.00
71344;BME280;59146;43.850;25.948;2024-02-14T04:21:59;101024.66;;;8.89;80.18
71344;BME280;59146;43.850;25.948;2024-02-14T04:24:24;100984.22;;;8.80;80.37
71344;BME280;59146;43.850;25.948;2024-02-14T04:26:49;100997.25;;;8.80;80.20
71344;BME280;59146;43.850;25.948;2024-02-14T04:29:15;100959.59;;;8.30;81.89
71344;BME280;59146;43.850;25.948;2024-02-14T04:31:40;100922.78;;;7.99;82.41
71344;BME280;59146;43.850;25.948;2024-02-14T04:34:08;100941.81;;;8.20;83.22
71344;BME280;59146;43.850;25.948;2024-02-14T04:36:35;100993.69;;;8.63;81.99
71344;BME280;59146;43.850;25.948;2024-02-14T04:39:00;100961.38;;;8.48;80.58
71344;BME280;59146;43.850;25.948;2024-02-14T04:41:26;100996.16;;;8.47;82.55
71344;BME280;59146;43.850;25.948;2024-02-14T04:43:51;100979.81;;;8.25;84.01
71344;BME280;59146;43.850;25.948;2024-02-14T04:46:17;101053.00;;;8.76;84.29
71344;BME280;59146;43.850;25.948;2024-02-14T04:48:42;100970.78;;;8.32;84.01
71344;BME280;59146;43.850;25.948;2024-02-14T04:51:08;100950.38;;;7.83;88.07
71344;BME280;59146;43.850;25.948;2024-02-14T04:53:33;101022.16;;;8.07;90.32
71344;BME280;59146;43.850;25.948;2024-02-14T04:55:59;101045.84;;;8.21;91.80
71344;BME280;59146;43.850;25.948;2024-02-14T04:58:25;100986.59;;;7.87;92.43
71344;BME280;59146;43.850;25.948;2024-02-14T05:00:52;101058.84;;;8.21;93.17
71344;BME280;59146;43.850;25.948;2024-02-14T05:03:17;101021.22;;;7.88;94.44
71344;BME280;59146;43.850;25.948;2024-02-14T05:05:43;101052.75;;;8.02;94.55
71344;BME280;59146;43.850;25.948;2024-02-14T05:08:09;101061.34;;;8.04;94.64
71344;BME280;59146;43.850;25.948;2024-02-14T05:10:34;101013.78;;;7.59;95.34
71344;BME280;59146;43.850;25.948;2024-02-14T05:13:00;100951.28;;;7.18;96.09
71344;BME280;59146;43.850;25.948;2024-02-14T05:15:26;101077.13;;;7.78;96.82
71344;BME280;59146;43.850;25.948;2024-02-14T05:17:51;101061.78;;;7.72;96.88
71344;BME280;59146;43.850;25.948;2024-02-14T05:20:17;101071.28;;;7.73;96.89
71344;BME280;59146;43.850;25.948;2024-02-14T05:22:43;101070.63;;;7.68;96.90
71344;BME280;59146;43.850;25.948;2024-02-14T05:25:09;101028.41;;;7.40;96.84
71344;BME280;59146;43.850;25.948;2024-02-14T05:27:38;101035.19;;;7.65;96.45
71344;BME280;59146;43.850;25.948;2024-02-14T05:30:04;101083.25;;;7.77;96.83
71344;BME280;59146;43.850;25.948;2024-02-14T05:32:34;101045.47;;;7.47;97.37
71344;BME280;59146;43.850;25.948;2024-02-14T05:35:00;101077.13;;;7.56;96.59
71344;BME280;59146;43.850;25.948;2024-02-14T05:37:26;101110.06;;;7.79;96.26
71344;BME280;59146;43.850;25.948;2024-02-14T05:39:54;101109.06;;;7.81;96.28
71344;BME280;59146;43.850;25.948;2024-02-14T05:42:20;101129.50;;;8.12;94.23
71344;BME280;59146;43.850;25.948;2024-02-14T05:44:46;101036.38;;;7.57;93.45
71344;BME280;59146;43.850;25.948;2024-02-14T05:47:12;101133.25;;;8.05;94.93
71344;BME280;59146;43.850;25.948;2024-02-14T05:49:39;101013.13;;;7.32;95.07
71344;BME280;59146;43.850;25.948;2024-02-14T05:52:05;101118.25;;;8.12;94.96
71344;BME280;59146;43.850;25.948;2024-02-14T05:54:31;101126.00;;;8.13;95.26
71344;BME280;59146;43.850;25.948;2024-02-14T05:56:56;101067.34;;;7.63;97.27
71344;BME280;59146;43.850;25.948;2024-02-14T05:59:23;101109.31;;;7.75;98.10
71344;BME280;59146;43.850;25.948;2024-02-14T06:01:48;101142.72;;;8.08;98.47
71344;BME280;59146;43.850;25.948;2024-02-14T06:04:14;101139.41;;;8.24;97.25
71344;BME280;59146;43.850;25.948;2024-02-14T06:06:39;101171.41;;;8.28;97.61
71344;BME280;59146;43.850;25.948;2024-02-14T06:09:04;101128.78;;;8.09;97.35
71344;BME280;59146;43.850;25.948;2024-02-14T06:11:38;101073.66;;;7.79;97.66
71344;BME280;59146;43.850;25.948;2024-02-14T06:14:07;101161.47;;;8.37;96.15
71344;BME280;59146;43.850;25.948;2024-02-14T06:16:34;101145.00;;;8.15;96.36
71344;BME280;59146;43.850;25.948;2024-02-14T06:18:59;101144.59;;;8.04;97.78
71344;BME280;59146;43.850;25.948;2024-02-14T06:21:25;101109.47;;;7.71;98.80
71344;BME280;59146;43.850;25.948;2024-02-14T06:23:51;101119.72;;;7.97;98.13
71344;BME280;59146;43.850;25.948;2024-02-14T06:26:17;101191.97;;;8.34;97.18
71344;BME280;59146;43.850;25.948;2024-02-14T06:28:43;101077.75;;;7.63;96.97
71344;BME280;59146;43.850;25.948;2024-02-14T06:31:09;101161.78;;;8.08;97.71
71344;BME280;59146;43.850;25.948;2024-02-14T06:33:35;101178.28;;;8.07;97.64
71344;BME280;59146;43.850;25.948;2024-02-14T06:36:00;101178.16;;;8.10;96.99
71344;BME280;59146;43.850;25.948;2024-02-14T06:38:26;101174.78;;;8.08;96.99
71344;BME280;59146;43.850;25.948;2024-02-14T06:40:51;101177.78;;;8.19;97.39
71344;BME280;59146;43.850;25.948;2024-02-14T06:43:17;101174.41;;;8.17;96.91
71344;BME280;59146;43.850;25.948;2024-02-14T06:45:42;101168.59;;;8.11;96.06
71344;BME280;59146;43.850;25.948;2024-02-14T06:48:08;101137.34;;;8.11;95.19
71344;BME280;59146;43.850;25.948;2024-02-14T06:50:34;101147.78;;;8.32;95.13
71344;BME280;59146;43.850;25.948;2024-02-14T06:52:59;101150.19;;;8.15;95.91
71344;BME280;59146;43.850;25.948;2024-02-14T06:55:28;101220.50;;;8.78;95.60
71344;BME280;59146;43.850;25.948;2024-02-14T06:57:56;101227.28;;;9.03;94.34
71344;BME280;59146;43.850;25.948;2024-02-14T07:00:22;101160.69;;;8.55;92.61
71344;BME280;59146;43.850;25.948;2024-02-14T07:02:47;101204.28;;;8.72;93.85
71344;BME280;59146;43.850;25.948;2024-02-14T07:05:13;101192.81;;;8.56;94.23
71344;BME280;59146;43.850;25.948;2024-02-14T07:07:40;101206.16;;;8.89;94.23
71344;BME280;59146;43.850;25.948;2024-02-14T07:10:06;101216.72;;;8.86;93.69
71344;BME280;59146;43.850;25.948;2024-02-14T07:12:32;101190.41;;;8.71;93.01
71344;BME280;59146;43.850;25.948;2024-02-14T07:14:57;101222.47;;;8.52;94.25
71344;BME280;59146;43.850;25.948;2024-02-14T07:17:23;101224.31;;;8.50;95.68
71344;BME280;59146;43.850;25.948;2024-02-14T07:19:48;101181.78;;;8.49;95.46
71344;BME280;59146;43.850;25.948;2024-02-14T07:22:15;101167.72;;;8.33;94.61
71344;BME280;59146;43.850;25.948;2024-02-14T07:24:41;101204.78;;;8.60;95.14
71344;BME280;59146;43.850;25.948;2024-02-14T07:27:08;101233.59;;;8.77;96.02
71344;BME280;59146;43.850;25.948;2024-02-14T07:29:33;101221.41;;;8.77;95.54
71344;BME280;59146;43.850;25.948;2024-02-14T07:32:01;101243.56;;;8.88;95.07
71344;BME280;59146;43.850;25.948;2024-02-14T07:34:27;101249.16;;;8.99;94.33
71344;BME280;59146;43.850;25.948;2024-02-14T07:36:52;101250.91;;;8.78;94.83
71344;BME280;59146;43.850;25.948;2024-02-14T07:39:18;101205.81;;;8.56;95.51
71344;BME280;59146;43.850;25.948;2024-02-14T07:41:44;101197.22;;;8.54;95.42
71344;BME280;59146;43.850;25.948;2024-02-14T07:44:09;101191.50;;;8.46;95.81
71344;BME280;59146;43.850;25.948;2024-02-14T07:46:34;101269.56;;;8.67;97.76
71344;BME280;59146;43.850;25.948;2024-02-14T07:49:00;101189.91;;;8.20;97.52
71344;BME280;59146;43.850;25.948;2024-02-14T07:51:25;101201.88;;;8.24;98.00
71344;BME280;59146;43.850;25.948;2024-02-14T07:53:52;101274.53;;;8.73;98.13
71344;BME280;59146;43.850;25.948;2024-02-14T07:56:17;101221.03;;;8.45;98.13
71344;BME280;59146;43.850;25.948;2024-02-14T07:58:43;101271.63;;;8.59;98.84
71344;BME280;59146;43.850;25.948;2024-02-14T08:01:09;101296.41;;;8.69;99.35
71344;BME280;59146;43.850;25.948;2024-02-14T08:03:34;101298.97;;;8.71;99.37
71344;BME280;59146;43.850;25.948;2024-02-14T08:06:00;101287.06;;;8.86;99.25
71344;BME280;59146;43.850;25.948;2024-02-14T08:08:26;101229.63;;;8.47;98.28
71344;BME280;59146;43.850;25.948;2024-02-14T08:10:52;101287.19;;;8.82;98.32
71344;BME280;59146;43.850;25.948;2024-02-14T08:13:18;101289.94;;;9.00;98.36
71344;BME280;59146;43.850;25.948;2024-02-14T08:15:43;101215.66;;;8.69;97.75
71344;BME280;59146;43.850;25.948;2024-02-14T08:18:09;101294.19;;;9.22;97.55
71344;BME280;59146;43.850;25.948;2024-02-14T08:20:34;101289.69;;;9.26;97.04
71344;BME280;59146;43.850;25.948;2024-02-14T08:23:00;101304.03;;;9.56;96.03
71344;BME280;59146;43.850;25.948;2024-02-14T08:25:25;101262.84;;;9.44;95.07
71344;BME280;59146;43.850;25.948;2024-02-14T08:27:52;101291.06;;;9.34;95.99
71344;BME280;59146;43.850;25.948;2024-02-14T08:30:17;101288.00;;;9.25;97.46
71344;BME280;59146;43.850;25.948;2024-02-14T08:32:44;101304.25;;;9.31;98.75
71344;BME280;59146;43.850;25.948;2024-02-14T08:35:10;101284.88;;;9.37;96.72
71344;BME280;59146;43.850;25.948;2024-02-14T08:37:36;101300.19;;;9.24;95.10
71344;BME280;59146;43.850;25.948;2024-02-14T08:40:03;101295.75;;;9.26;91.53
71344;BME280;59146;43.850;25.948;2024-02-14T08:42:32;101318.78;;;9.17;88.76
71344;BME280;59146;43.850;25.948;2024-02-14T08:44:57;101303.50;;;9.08;87.50
71344;BME280;59146;43.850;25.948;2024-02-14T08:47:23;101277.09;;;8.95;87.44
71344;BME280;59146;43.850;25.948;2024-02-14T08:49:48;101273.91;;;8.89;88.85
71344;BME280;59146;43.850;25.948;2024-02-14T08:52:13;101278.72;;;8.77;90.33
71344;BME280;59146;43.850;25.948;2024-02-14T08:54:39;101323.47;;;9.09;89.76
71344;BME280;59146;43.850;25.948;2024-02-14T08:57:04;101315.69;;;9.07;89.58
71344;BME280;59146;43.850;25.948;2024-02-14T08:59:30;101339.78;;;9.34;90.06
71344;BME280;59146;43.850;25.948;2024-02-14T09:01:55;101308.16;;;9.21;89.30
71344;BME280;59146;43.850;25.948;2024-02-14T09:04:21;101341.13;;;9.63;88.72
71344;BME280;59146;43.850;25.948;2024-02-14T09:06:46;101278.47;;;9.44;85.92
71344;BME280;59146;43.850;25.948;2024-02-14T09:09:12;101281.31;;;9.58;84.78
71344;BME280;59146;43.850;25.948;2024-02-14T09:11:39;101300.81;;;9.70;84.19
71344;BME280;59146;43.850;25.948;2024-02-14T09:14:06;101243.88;;;9.20;85.43
71344;BME280;59146;43.850;25.948;2024-02-14T09:16:33;101283.13;;;9.37;88.19
71344;BME280;59146;43.850;25.948;2024-02-14T09:18:59;101295.03;;;9.63;89.73
71344;BME280;59146;43.850;25.948;2024-02-14T09:21:24;101339.41;;;10.20;88.36
71344;BME280;59146;43.850;25.948;2024-02-14T09:23:50;101323.50;;;10.06;85.85
71344;BME280;59146;43.850;25.948;2024-02-14T09:26:15;101282.78;;;9.84;84.37
71344;BME280;59146;43.850;25.948;2024-02-14T09:28:43;101300.97;;;10.04;83.14
71344;BME280;59146;43.850;25.948;2024-02-14T09:31:09;101328.78;;;10.05;83.14
71344;BME280;59146;43.850;25.948;2024-02-14T09:33:37;101355.34;;;10.33;83.47
71344;BME280;59146;43.850;25.948;2024-02-14T09:36:03;101251.47;;;9.65;83.77
71344;BME280;59146;43.850;25.948;2024-02-14T09:38:29;101298.97;;;10.10;83.48
71344;BME280;59146;43.850;25.948;2024-02-14T09:40:58;101329.03;;;10.37;81.89
71344;BME280;59146;43.850;25.948;2024-02-14T09:43:36;101166.16;;;9.67;81.19
71344;BME280;59146;43.850;25.948;2024-02-14T09:46:03;101329.69;;;10.43;81.55
71344;BME280;59146;43.850;25.948;2024-02-14T09:48:30;101289.63;;;9.86;83.10
71344;BME280;59146;43.850;25.948;2024-02-14T09:50:56;101318.19;;;10.08;84.59
71344;BME280;59146;43.850;25.948;2024-02-14T09:53:22;101287.94;;;9.85;83.38
71344;BME280;59146;43.850;25.948;2024-02-14T09:55:49;101330.03;;;10.16;84.68
71344;BME280;59146;43.850;25.948;2024-02-14T09:58:15;101263.31;;;9.91;83.91
71344;BME280;59146;43.850;25.948;2024-02-14T10:00:41;101352.34;;;10.03;83.70
71344;BME280;59146;43.850;25.948;2024-02-14T10:03:07;101284.94;;;9.74;83.08
71344;BME280;59146;43.850;25.948;2024-02-14T10:08:18;101329.59;;;9.87;82.84
71344;BME280;59146;43.850;25.948;2024-02-14T10:10:46;101331.16;;;9.91;82.68
71344;BME280;59146;43.850;25.948;2024-02-14T10:13:11;101212.81;;;8.96;82.25
71344;BME280;59146;43.850;25.948;2024-02-14T10:15:37;101352.56;;;9.79;82.94
71344;BME280;59146;43.850;25.948;2024-02-14T10:18:02;101277.25;;;9.52;84.11
71344;BME280;59146;43.850;25.948;2024-02-14T10:20:28;101325.44;;;10.01;83.69
71344;BME280;59146;43.850;25.948;2024-02-14T10:23:03;101276.28;;;9.74;83.70
71344;BME280;59146;43.850;25.948;2024-02-14T10:25:29;101268.09;;;9.63;84.68
71344;BME280;59146;43.850;25.948;2024-02-14T10:27:54;101343.47;;;10.07;84.87
71344;BME280;59146;43.850;25.948;2024-02-14T10:30:20;101322.34;;;9.93;82.24
71344;BME280;59146;43.850;25.948;2024-02-14T10:32:47;101329.13;;;9.97;82.09
71344;BME280;59146;43.850;25.948;2024-02-14T10:35:15;101281.22;;;9.80;82.46
71344;BME280;59146;43.850;25.948;2024-02-14T10:37:41;101343.03;;;9.98;83.74
71344;BME280;59146;43.850;25.948;2024-02-14T10:40:08;101272.72;;;9.56;81.06
71344;BME280;59146;43.850;25.948;2024-02-14T10:42:34;101263.75;;;9.82;80.86
71344;BME280;59146;43.850;25.948;2024-02-14T10:45:01;101343.94;;;10.35;78.90
71344;BME280;59146;43.850;25.948;2024-02-14T10:47:31;101307.34;;;9.98;78.07
71344;BME280;59146;43.850;25.948;2024-02-14T10:50:05;101248.84;;;9.65;79.42
71344;BME280;59146;43.850;25.948;2024-02-14T10:52:32;101305.69;;;10.34;78.94
71344;BME280;59146;43.850;25.948;2024-02-14T10:55:02;101286.13;;;10.24;79.20
71344;BME280;59146;43.850;25.948;2024-02-14T10:57:29;101218.94;;;9.72;81.33
71344;BME280;59146;43.850;25.948;2024-02-14T10:59:55;101257.47;;;10.04;81.15
71344;BME280;59146;43.850;25.948;2024-02-14T11:02:23;101294.19;;;10.38;80.72
71344;BME280;59146;43.850;25.948;2024-02-14T11:04:49;101308.84;;;10.60;80.72
71344;BME280;59146;43.850;25.948;2024-02-14T11:07:19;101295.06;;;10.56;80.93
71344;BME280;59146;43.850;25.948;2024-02-14T11:09:45;101281.69;;;10.45;81.04
71344;BME280;59146;43.850;25.948;2024-02-14T11:12:11;101295.00;;;10.75;80.42
71344;BME280;59146;43.850;25.948;2024-02-14T11:14:37;101251.28;;;10.25;80.15
71344;BME280;59146;43.850;25.948;2024-02-14T11:17:04;101301.72;;;10.45;81.22
71344;BME280;59146;43.850;25.948;2024-02-14T11:19:34;101304.59;;;10.57;80.62
71344;BME280;59146;43.850;25.948;2024-02-14T11:22:19;101224.81;;;10.14;81.24
71344;BME280;59146;43.850;25.948;2024-02-14T11:24:48;101293.97;;;10.24;82.18
71344;BME280;59146;43.850;25.948;2024-02-14T11:27:14;101249.34;;;9.92;82.70
71344;BME280;59146;43.850;25.948;2024-02-14T11:29:53;101295.91;;;10.57;81.86
71344;BME280;59146;43.850;25.948;2024-02-14T11:32:18;101231.28;;;10.24;80.97
71344;BME280;59146;43.850;25.948;2024-02-14T11:35:04;101280.78;;;10.63;80.00
71344;BME280;59146;43.850;25.948;2024-02-14T11:37:31;101278.13;;;10.46;80.15
71344;BME280;59146;43.850;25.948;2024-02-14T11:39:57;101284.69;;;10.55;80.54
71344;BME280;59146;43.850;25.948;2024-02-14T11:42:23;101228.00;;;10.21;80.37
71344;BME280;59146;43.850;25.948;2024-02-14T11:44:49;101238.53;;;10.55;79.76
71344;BME280;59146;43.850;25.948;2024-02-14T11:47:14;101286.78;;;10.65;80.09
71344;BME280;59146;43.850;25.948;2024-02-14T11:49:40;101239.84;;;10.09;81.44
71344;BME280;59146;43.850;25.948;2024-02-14T11:52:09;101303.34;;;10.47;81.64
71344;BME280;59146;43.850;25.948;2024-02-14T11:54:35;101260.38;;;10.17;81.87
71344;BME280;59146;43.850;25.948;2024-02-14T11:57:00;101278.94;;;10.29;81.45
71344;BME280;59146;43.850;25.948;2024-02-14T11:59:26;101298.19;;;10.27;81.91
71344;BME280;59146;43.850;25.948;2024-02-14T12:01:51;101252.44;;;10.00;82.99
71344;BME280;59146;43.850;25.948;2024-02-14T12:04:19;101316.13;;;10.53;82.77
71344;BME280;59146;43.850;25.948;2024-02-14T12:06:45;101243.09;;;10.14;82.60
71344;BME280;59146;43.850;25.948;2024-02-14T12:09:11;101304.16;;;10.48;84.26
71344;BME280;59146;43.850;25.948;2024-02-14T12:11:39;101306.75;;;10.30;85.70
71344;BME280;59146;43.850;25.948;2024-02-14T12:14:08;101233.50;;;9.96;86.72
71344;BME280;59146;43.850;25.948;2024-02-14T12:16:35;101279.28;;;10.41;86.37
71344;BME280;59146;43.850;25.948;2024-02-14T12:19:22;101308.31;;;10.70;86.30
71344;BME280;59146;43.850;25.948;2024-02-14T12:21:48;101260.38;;;10.17;87.49
71344;BME280;59146;43.850;25.948;2024-02-14T12:24:14;101296.25;;;10.13;89.35
71344;BME280;59146;43.850;25.948;2024-02-14T12:26:41;101268.00;;;10.21;88.94
71344;BME280;59146;43.850;25.948;2024-02-14T12:29:07;101288.47;;;10.30;88.87
71344;BME280;59146;43.850;25.948;2024-02-14T12:31:34;101209.03;;;9.80;88.46
71344;BME280;59146;43.850;25.948;2024-02-14T12:34:02;101302.84;;;10.39;88.22
71344;BME280;59146;43.850;25.948;2024-02-14T12:36:31;101258.16;;;9.89;89.03
71344;BME280;59146;43.850;25.948;2024-02-14T12:39:01;101321.81;;;10.05;90.09
71344;BME280;59146;43.850;25.948;2024-02-14T12:41:30;101274.66;;;9.90;90.03
71344;BME280;59146;43.850;25.948;2024-02-14T12:43:56;101238.63;;;9.79;89.35
71344;BME280;59146;43.850;25.948;2024-02-14T12:46:22;101211.19;;;9.52;88.96